Time;durP1;ratioP1;P1;durP2;ratioP2;P2;SDS_P1;SDS_P2;PMS_P1;PMS_P2;Temp;Humidity;BMP_temperature;BMP_pressure;BME280_temperature;BME280_humidity;BME280_pressure;Samples;Min_cycle;Max_cycle;Signal;HPM_P1;HPM_P2
2022/08/09 00:00:05;;;;;;;4.83;3.00;;;19.70;84.60;;;;;;5023201;28;20754;-63
2022/08/09 00:02:32;;;;;;;3.40;3.10;;;19.70;84.20;;;;;;5034885;28;20204;-64
2022/08/09 00:04:57;;;;;;;3.10;2.90;;;19.80;87.70;;;;;;5019013;28;20866;-64
2022/08/09 00:07:23;;;;;;;3.53;2.90;;;19.80;87.90;;;;;;5020555;28;20192;-63
2022/08/09 00:09:48;;;;;;;4.57;3.37;;;19.80;88.20;;;;;;5015172;28;20308;-63
2022/08/09 00:12:14;;;;;;;3.43;3.13;;;19.80;86.60;;;;;;5036012;28;20206;-63
2022/08/09 00:14:39;;;;;;;3.10;2.63;;;19.90;86.00;;;;;;5014183;28;20204;-63
2022/08/09 00:17:05;;;;;;;3.50;2.77;;;19.90;87.40;;;;;;5019854;28;20609;-64
2022/08/09 00:19:30;;;;;;;3.03;2.83;;;19.90;85.90;;;;;;5019710;28;20566;-63
2022/08/09 00:21:56;;;;;;;2.70;2.50;;;19.90;87.60;;;;;;5021569;28;20827;-63
2022/08/09 00:24:21;;;;;;;4.83;3.33;;;19.90;90.00;;;;;;5028104;28;20440;-63
2022/08/09 00:26:47;;;;;;;2.90;2.70;;;19.90;89.30;;;;;;5021881;28;20666;-64
2022/08/09 00:29:13;;;;;;;4.77;2.83;;;19.90;87.00;;;;;;5024865;28;20207;-63
2022/08/09 00:31:38;;;;;;;3.10;2.80;;;19.90;87.60;;;;;;5033714;28;20191;-63
2022/08/09 00:34:04;;;;;;;4.30;3.30;;;19.80;86.50;;;;;;5030305;28;20662;-63
2022/08/09 00:36:30;;;;;;;5.73;3.37;;;19.80;87.50;;;;;;5010566;28;20176;-63
2022/08/09 00:38:55;;;;;;;2.83;2.63;;;19.80;89.30;;;;;;5017318;28;20203;-63
2022/08/09 00:41:21;;;;;;;13.30;3.20;;;19.70;90.20;;;;;;5017785;28;20179;-63
2022/08/09 00:43:48;;;;;;;5.47;2.77;;;19.70;90.00;;;;;;5023964;28;20207;-62
2022/08/09 00:46:14;;;;;;;5.37;3.27;;;19.70;90.70;;;;;;5011344;28;20183;-62
2022/08/09 00:48:39;;;;;;;3.57;3.10;;;19.70;91.60;;;;;;5021746;28;20563;-62
2022/08/09 00:51:08;;;;;;;3.70;3.40;;;19.70;90.90;;;;;;5009128;28;20226;-62
2022/08/09 00:53:35;;;;;;;3.13;2.83;;;19.70;91.70;;;;;;5035278;28;20203;-61
2022/08/09 00:56:02;;;;;;;5.97;3.20;;;19.70;90.90;;;;;;5016810;28;20669;-62
2022/08/09 00:58:30;;;;;;;5.30;2.97;;;19.70;91.40;;;;;;5027458;28;20274;-62
2022/08/09 01:00:56;;;;;;;3.57;2.97;;;19.70;91.30;;;;;;5024354;28;20983;-62
2022/08/09 01:03:44;;;;;;;4.07;3.00;;;19.70;90.80;;;;;;5031579;28;20557;-62
2022/08/09 01:06:32;;;;;;;4.63;3.60;;;19.70;91.00;;;;;;5009379;28;20211;-62
2022/08/09 01:09:16;;;;;;;5.23;3.87;;;19.60;91.50;;;;;;5016990;28;20203;-63
2022/08/09 01:11:59;;;;;;;3.53;3.23;;;19.60;92.70;;;;;;5021722;28;20189;-62
2022/08/09 01:14:30;;;;;;;5.70;3.23;;;19.60;93.40;;;;;;5003509;28;20200;-62
2022/08/09 01:17:15;;;;;;;3.43;2.90;;;19.60;94.40;;;;;;5019693;28;20223;-63
2022/08/09 01:20:01;;;;;;;4.17;3.43;;;19.60;94.60;;;;;;5003384;28;20223;-63
2022/08/09 01:22:51;;;;;;;5.20;3.30;;;19.60;94.60;;;;;;5019455;28;20194;-62
2022/08/09 01:25:32;;;;;;;3.80;3.27;;;19.60;94.60;;;;;;5017635;28;20216;-63
2022/08/09 01:27:59;;;;;;;3.23;2.93;;;19.50;94.50;;;;;;5015935;28;20558;-63
2022/08/09 01:30:26;;;;;;;3.13;2.93;;;19.50;94.60;;;;;;5012997;28;20207;-62
2022/08/09 01:32:52;;;;;;;7.85;3.60;;;19.50;94.90;;;;;;5023084;28;20195;-62
2022/08/09 01:35:37;;;;;;;6.00;3.57;;;19.40;94.50;;;;;;5017836;28;20212;-63
2022/08/09 01:38:07;;;;;;;3.33;3.03;;;19.40;95.60;;;;;;5020233;28;20186;-63
2022/08/09 01:40:35;;;;;;;3.73;3.43;;;19.30;95.40;;;;;;5018174;28;20214;-64
2022/08/09 01:43:01;;;;;;;3.10;2.90;;;19.30;95.60;;;;;;5040060;28;20211;-63
2022/08/09 01:45:28;;;;;;;3.97;3.27;;;19.30;96.10;;;;;;5012743;28;20216;-62
2022/08/09 01:47:55;;;;;;;3.70;3.40;;;19.20;96.30;;;;;;5041648;28;20195;-62
2022/08/09 01:50:23;;;;;;;4.07;3.40;;;19.20;96.50;;;;;;5019615;28;20214;-62
2022/08/09 01:52:49;;;;;;;3.87;3.40;;;19.20;96.60;;;;;;5035904;28;20264;-62
2022/08/09 01:55:16;;;;;;;4.43;3.30;;;19.20;97.30;;;;;;5020363;28;20663;-62
2022/08/09 01:57:44;;;;;;;3.30;2.97;;;19.20;97.40;;;;;;5025455;28;20708;-62
2022/08/09 02:00:11;;;;;;;3.93;3.53;;;19.20;97.50;;;;;;5030515;28;20226;-62
2022/08/09 02:02:40;;;;;;;4.07;3.57;;;19.20;97.90;;;;;;5024372;28;20180;-62
2022/08/09 02:05:09;;;;;;;5.03;3.67;;;19.30;98.30;;;;;;5020012;28;20340;-62
2022/08/09 02:07:40;;;;;;;3.60;3.10;;;19.30;98.50;;;;;;5031561;28;20242;-63
2022/08/09 02:10:15;;;;;;;6.07;3.37;;;19.20;98.00;;;;;;5019789;28;20278;-62
2022/08/09 02:12:42;;;;;;;4.40;3.17;;;19.30;98.40;;;;;;5021208;28;20223;-62
2022/08/09 02:15:09;;;;;;;3.43;2.90;;;19.30;98.30;;;;;;5016971;28;20238;-61
2022/08/09 02:17:37;;;;;;;5.63;3.70;;;19.30;97.70;;;;;;5008261;28;20296;-62
2022/08/09 02:20:03;;;;;;;3.67;3.27;;;19.30;97.50;;;;;;5029926;28;20287;-65
2022/08/09 02:22:40;;;;;;;3.60;3.30;;;19.20;97.20;;;;;;5038427;28;20281;-61
2022/08/09 02:25:16;;;;;;;4.43;3.47;;;19.20;97.40;;;;;;5018436;28;20208;-65
2022/08/09 02:27:49;;;;;;;3.00;2.70;;;19.20;98.60;;;;;;5022999;28;20215;-62
2022/08/09 02:30:15;;;;;;;4.17;3.43;;;19.20;99.00;;;;;;5006560;28;20203;-62
2022/08/09 02:32:44;;;;;;;3.93;3.53;;;19.20;99.40;;;;;;5036713;28;20232;-63
2022/08/09 02:35:18;;;;;;;3.67;3.10;;;19.10;99.90;;;;;;5019543;28;20210;-62
2022/08/09 02:37:48;;;;;;;4.87;2.77;;;19.10;98.80;;;;;;5015552;28;20207;-62
2022/08/09 02:40:17;;;;;;;4.73;3.70;;;19.10;99.20;;;;;;5018588;28;20334;-62
2022/08/09 02:42:46;;;;;;;3.70;3.40;;;19.10;99.20;;;;;;5042471;28;20199;-62
2022/08/09 02:45:20;;;;;;;4.07;3.20;;;19.10;99.00;;;;;;5023637;28;20211;-62
2022/08/09 02:47:47;;;;;;;3.53;3.00;;;19.10;99.40;;;;;;5019183;28;20187;-65
2022/08/09 02:50:18;;;;;;;3.37;3.07;;;19.10;99.60;;;;;;5022641;28;20709;-62
2022/08/09 02:52:50;;;;;;;4.87;3.30;;;19.10;99.70;;;;;;5023366;28;20202;-62
2022/08/09 02:55:17;;;;;;;8.13;3.97;;;19.10;99.50;;;;;;5018478;28;20223;-62
2022/08/09 02:57:44;;;;;;;3.43;3.13;;;19.20;99.90;;;;;;5028143;28;20543;-62
2022/08/09 03:00:11;;;;;;;3.57;3.27;;;19.10;99.90;;;;;;5019416;28;20242;-62
2022/08/09 03:02:39;;;;;;;8.27;4.10;;;19.10;99.90;;;;;;5042318;28;20193;-62
2022/08/09 03:05:08;;;;;;;4.77;3.73;;;19.10;99.80;;;;;;5022040;28;20749;-62
2022/08/09 03:07:34;;;;;;;6.13;3.40;;;19.10;99.90;;;;;;5039002;28;20192;-62
2022/08/09 03:10:02;;;;;;;5.77;3.73;;;19.10;99.70;;;;;;5032852;28;20207;-62
2022/08/09 03:12:29;;;;;;;3.13;2.83;;;19.10;99.50;;;;;;5031102;28;20203;-62
2022/08/09 03:14:57;;;;;;;3.93;3.57;;;19.10;99.40;;;;;;5033755;28;20298;-62
2022/08/09 03:17:23;;;;;;;3.93;2.90;;;19.10;99.90;;;;;;5021536;28;20227;-62
2022/08/09 03:19:49;;;;;;;4.97;3.60;;;19.10;99.90;;;;;;5027504;28;20266;-62
2022/08/09 03:22:17;;;;;;;3.80;3.50;;;19.10;99.90;;;;;;5035950;28;20195;-63
2022/08/09 03:24:42;;;;;;;6.17;3.30;;;19.10;99.90;;;;;;5030718;28;20550;-62
2022/08/09 03:27:09;;;;;;;6.83;3.40;;;19.10;99.90;;;;;;5040851;28;20286;-62
2022/08/09 03:29:37;;;;;;;3.50;3.27;;;19.10;99.90;;;;;;5036235;28;20207;-62
2022/08/09 03:32:04;;;;;;;4.07;3.43;;;19.10;99.90;;;;;;5018832;28;20190;-62
2022/08/09 03:34:29;;;;;;;4.37;3.97;;;19.10;99.90;;;;;;5038011;28;20206;-62
2022/08/09 03:36:56;;;;;;;4.37;3.63;;;19.10;99.90;;;;;;5035548;28;20714;-62
2022/08/09 03:39:24;;;;;;;3.90;3.60;;;19.10;99.90;;;;;;5037669;28;20207;-62
2022/08/09 03:41:50;;;;;;;6.10;4.10;;;19.10;99.90;;;;;;5016489;28;20626;-62
2022/08/09 03:44:19;;;;;;;5.70;3.33;;;19.10;99.90;;;;;;5025397;28;20227;-62
2022/08/09 03:46:45;;;;;;;5.50;3.80;;;19.10;99.90;;;;;;5013183;28;20214;-62
2022/08/09 03:49:10;;;;;;;4.37;3.50;;;19.10;99.90;;;;;;5034515;28;20223;-62
2022/08/09 03:51:43;;;;;;;3.53;3.23;;;19.00;99.90;;;;;;5013863;28;20274;-62
2022/08/09 03:54:09;;;;;;;5.67;4.03;;;19.00;99.90;;;;;;5015445;28;20189;-62
2022/08/09 03:56:35;;;;;;;5.80;3.87;;;19.00;99.90;;;;;;5006552;28;20175;-63
2022/08/09 03:59:01;;;;;;;4.13;3.83;;;19.00;99.90;;;;;;5039548;28;20697;-63
2022/08/09 04:01:28;;;;;;;4.90;3.70;;;19.00;99.90;;;;;;5012594;28;20280;-62
2022/08/09 04:03:54;;;;;;;6.60;3.93;;;19.00;99.90;;;;;;5044151;28;20218;-63
2022/08/09 04:06:20;;;;;;;6.43;3.83;;;19.00;99.90;;;;;;5015398;28;20217;-63
2022/08/09 04:08:46;;;;;;;4.80;4.40;;;19.00;99.90;;;;;;5029013;28;20199;-63
2022/08/09 04:11:12;;;;;;;5.80;4.23;;;19.10;99.90;;;;;;5018434;28;20196;-62
2022/08/09 04:13:37;;;;;;;5.23;4.20;;;19.10;99.90;;;;;;5044149;28;20539;-63
2022/08/09 04:16:03;;;;;;;5.20;3.93;;;19.10;99.90;;;;;;5025924;28;20510;-63
2022/08/09 04:18:29;;;;;;;4.70;3.67;;;19.10;99.90;;;;;;5029581;28;20699;-62
2022/08/09 04:20:54;;;;;;;4.77;4.17;;;19.10;99.90;;;;;;5015234;28;20195;-62
2022/08/09 04:23:20;;;;;;;4.20;3.90;;;19.20;99.90;;;;;;5028799;28;20226;-62
2022/08/09 04:25:46;;;;;;;6.20;3.83;;;19.20;99.90;;;;;;5022524;28;20208;-63
2022/08/09 04:28:11;;;;;;;4.10;3.70;;;19.20;99.90;;;;;;5035078;28;20191;-62
2022/08/09 04:30:37;;;;;;;6.47;3.93;;;19.20;99.90;;;;;;5013045;28;20223;-62
2022/08/09 04:33:02;;;;;;;5.77;4.03;;;19.20;99.90;;;;;;5040602;28;20191;-62
2022/08/09 04:35:27;;;;;;;3.80;3.50;;;19.20;99.90;;;;;;5018736;28;20556;-62
2022/08/09 04:37:53;;;;;;;4.43;3.73;;;19.20;99.90;;;;;;5023245;28;20266;-62
2022/08/09 04:40:19;;;;;;;5.00;4.00;;;19.30;99.90;;;;;;5021716;28;20212;-62
2022/08/09 04:42:45;;;;;;;6.00;3.93;;;19.30;99.90;;;;;;5039661;28;20899;-62
2022/08/09 04:45:11;;;;;;;4.40;3.70;;;19.30;99.90;;;;;;5023237;28;20211;-62
2022/08/09 04:47:37;;;;;;;6.87;4.70;;;19.40;99.90;;;;;;5043816;28;20198;-61
2022/08/09 04:50:02;;;;;;;8.33;3.80;;;19.40;99.90;;;;;;5021976;28;20597;-62
2022/08/09 04:52:28;;;;;;;5.47;4.10;;;19.40;99.90;;;;;;5036647;28;20260;-62
2022/08/09 04:54:59;;;;;;;4.40;4.00;;;19.50;99.90;;;;;;5030404;28;20210;-62
2022/08/09 04:57:24;;;;;;;3.60;3.30;;;19.50;99.90;;;;;;5008897;28;20195;-61
2022/08/09 04:59:52;;;;;;;6.87;3.73;;;19.50;99.80;;;;;;5033367;28;20224;-61
2022/08/09 05:02:18;;;;;;;6.23;4.17;;;19.50;99.90;;;;;;5026013;28;20230;-62
2022/08/09 05:04:44;;;;;;;6.83;3.90;;;19.50;99.80;;;;;;5035115;28;20574;-62
2022/08/09 05:07:09;;;;;;;4.53;4.03;;;19.60;99.90;;;;;;5025582;28;20191;-62
2022/08/09 05:09:34;;;;;;;6.20;3.90;;;19.60;99.90;;;;;;5026734;28;20575;-62
2022/08/09 05:12:00;;;;;;;6.17;3.83;;;19.60;99.90;;;;;;5009227;28;20168;-62
2022/08/09 05:14:25;;;;;;;5.60;4.10;;;19.70;99.90;;;;;;5035365;28;20221;-62
2022/08/09 05:16:51;;;;;;;6.97;5.53;;;19.70;99.90;;;;;;5014564;28;20271;-64
2022/08/09 05:19:20;;;;;;;4.60;4.20;;;19.80;99.90;;;;;;5026943;28;20193;-62
2022/08/09 05:21:47;;;;;;;5.95;5.10;;;19.80;99.90;;;;;;5018430;28;20186;-61
2022/08/09 05:24:13;;;;;;;6.17;4.03;;;19.80;99.10;;;;;;5032605;28;20199;-64
2022/08/09 05:26:39;;;;;;;4.83;3.87;;;19.80;99.00;;;;;;5017463;28;20202;-65
2022/08/09 05:29:04;;;;;;;5.33;4.37;;;19.90;99.30;;;;;;5030497;28;20377;-63
2022/08/09 05:31:30;;;;;;;5.93;4.00;;;19.90;99.40;;;;;;5015253;28;20200;-64
2022/08/09 05:33:55;;;;;;;4.13;3.80;;;20.00;99.40;;;;;;5026074;28;20869;-63
2022/08/09 05:36:21;;;;;;;7.23;3.87;;;20.00;99.70;;;;;;5036445;28;20222;-62
2022/08/09 05:38:46;;;;;;;4.20;3.80;;;20.10;99.90;;;;;;5032799;28;20646;-62
2022/08/09 05:41:12;;;;;;;5.23;3.60;;;20.10;99.80;;;;;;5020033;28;20207;-63
2022/08/09 05:43:37;;;;;;;7.77;3.93;;;20.20;99.50;;;;;;5036816;28;20682;-62
2022/08/09 05:46:03;;;;;;;5.22;4.00;;;20.20;99.30;;;;;;5026724;28;20215;-63
2022/08/09 05:48:28;;;;;;;4.23;3.90;;;20.30;99.70;;;;;;5039907;28;20245;-63
2022/08/09 05:50:54;;;;;;;7.07;4.32;;;20.40;99.70;;;;;;5020284;28;20208;-63
2022/08/09 05:53:20;;;;;;;5.15;4.28;;;20.40;98.90;;;;;;5041895;28;20530;-61
2022/08/09 05:55:45;;;;;;;5.43;4.50;;;20.50;99.00;;;;;;5021965;28;20223;-63
2022/08/09 05:58:11;;;;;;;5.27;4.20;;;20.50;98.20;;;;;;5034551;28;20565;-62
2022/08/09 06:00:36;;;;;;;5.20;4.33;;;20.60;99.00;;;;;;5022641;28;20216;-61
2022/08/09 06:03:03;;;;;;;4.47;3.83;;;20.70;98.90;;;;;;5030409;28;20191;-63
2022/08/09 06:05:31;;;;;;;13.68;4.28;;;20.80;97.70;;;;;;5026107;28;20220;-62
2022/08/09 06:07:57;;;;;;;4.22;3.92;;;20.90;97.40;;;;;;5017051;28;20254;-63
2022/08/09 06:10:36;;;;;;;4.80;4.10;;;21.00;97.60;;;;;;5027965;28;20671;-62
2022/08/09 06:13:06;;;;;;;4.43;4.13;;;21.00;97.50;;;;;;5020240;28;20227;-61
2022/08/09 06:15:31;;;;;;;4.32;3.92;;;21.10;96.90;;;;;;5018266;28;20227;-62
2022/08/09 06:17:57;;;;;;;4.45;4.05;;;21.20;96.80;;;;;;5039021;28;20196;-67
2022/08/09 06:20:22;;;;;;;4.95;3.90;;;21.30;96.30;;;;;;5038856;28;20248;-62
2022/08/09 06:22:48;;;;;;;4.15;3.85;;;21.30;95.50;;;;;;5037548;28;20674;-62
2022/08/09 06:25:14;;;;;;;8.50;4.45;;;21.40;95.70;;;;;;5037903;28;20253;-62
2022/08/09 06:27:40;;;;;;;5.47;4.40;;;21.40;95.70;;;;;;5030167;28;20184;-62
2022/08/09 06:30:06;;;;;;;6.50;4.87;;;21.40;95.20;;;;;;5037195;28;20375;-71
2022/08/09 06:32:32;;;;;;;9.03;3.70;;;21.40;95.20;;;;;;5010753;28;20191;-70
2022/08/09 06:34:58;;;;;;;3.70;3.40;;;21.50;95.30;;;;;;5037835;28;20203;-70
2022/08/09 06:37:23;;;;;;;5.05;3.47;;;21.60;95.30;;;;;;5013405;28;20187;-63
2022/08/09 06:39:49;;;;;;;4.45;4.03;;;21.70;94.50;;;;;;5031635;28;20235;-62
2022/08/09 06:42:16;;;;;;;5.53;3.65;;;21.80;94.30;;;;;;5007968;28;20211;-64
2022/08/09 06:44:41;;;;;;;3.83;3.53;;;21.90;94.20;;;;;;5035888;28;20207;-62
2022/08/09 06:47:07;;;;;;;10.43;3.47;;;22.00;93.90;;;;;;5010814;28;20270;-63
2022/08/09 06:49:32;;;;;;;5.00;3.17;;;22.10;93.60;;;;;;5031501;28;20212;-63
2022/08/09 06:51:58;;;;;;;3.70;3.40;;;22.30;93.30;;;;;;5019945;28;20605;-63
2022/08/09 06:54:23;;;;;;;4.82;3.63;;;22.50;92.90;;;;;;5030225;28;20200;-63
2022/08/09 06:56:49;;;;;;;9.70;3.40;;;22.80;91.80;;;;;;5015106;28;20188;-62
2022/08/09 06:59:14;;;;;;;3.70;3.38;;;23.10;91.50;;;;;;5031999;28;21049;-62
2022/08/09 07:01:40;;;;;;;5.38;3.42;;;23.30;91.30;;;;;;5016134;28;20226;-62
2022/08/09 07:04:05;;;;;;;5.93;4.07;;;23.50;90.90;;;;;;5035900;28;20637;-66
2022/08/09 07:06:31;;;;;;;3.80;3.42;;;23.50;90.10;;;;;;5016966;28;20601;-69
2022/08/09 07:08:56;;;;;;;6.47;3.78;;;23.50;89.70;;;;;;5027791;28;20203;-61
2022/08/09 07:11:22;;;;;;;7.25;3.65;;;23.40;88.50;;;;;;5020852;28;20265;-61
2022/08/09 07:13:47;;;;;;;3.42;3.22;;;23.50;88.70;;;;;;5034634;28;20189;-62
2022/08/09 07:16:12;;;;;;;3.58;3.28;;;23.40;87.20;;;;;;5022391;28;20215;-61
2022/08/09 07:18:38;;;;;;;3.45;2.97;;;23.40;85.40;;;;;;5026670;28;20656;-62
2022/08/09 07:21:04;;;;;;;4.28;3.10;;;23.50;86.60;;;;;;5021129;28;20199;-61
2022/08/09 07:23:29;;;;;;;5.38;3.10;;;23.50;84.40;;;;;;5037422;28;20689;-62
2022/08/09 07:25:55;;;;;;;4.68;3.70;;;23.40;84.20;;;;;;5019122;28;20540;-62
2022/08/09 07:28:20;;;;;;;4.88;2.97;;;23.30;84.10;;;;;;5034453;28;20214;-62
2022/08/09 07:30:45;;;;;;;4.90;2.55;;;23.30;82.10;;;;;;5021826;28;20294;-63
2022/08/09 07:33:11;;;;;;;2.80;2.60;;;23.20;82.40;;;;;;5031752;28;20346;-71
2022/08/09 07:35:37;;;;;;;3.22;2.92;;;23.30;83.50;;;;;;5026434;28;20689;-70
2022/08/09 07:38:02;;;;;;;4.53;2.38;;;23.30;82.30;;;;;;5043479;28;20732;-65
2022/08/09 07:40:28;;;;;;;3.35;2.33;;;23.40;81.80;;;;;;5033865;28;20206;-63
2022/08/09 07:42:57;;;;;;;3.13;2.60;;;23.40;81.50;;;;;;5029947;28;20255;-63
2022/08/09 07:45:27;;;;;;;2.97;2.28;;;23.40;82.40;;;;;;5018627;28;20220;-63
2022/08/09 07:47:53;;;;;;;3.35;2.95;;;23.40;79.90;;;;;;5007571;28;20169;-61
2022/08/09 07:50:20;;;;;;;3.17;2.88;;;23.40;80.20;;;;;;5037743;28;20693;-62
2022/08/09 07:52:46;;;;;;;4.97;2.45;;;23.40;78.90;;;;;;5016469;28;20322;-62
2022/08/09 07:55:11;;;;;;;4.05;3.00;;;23.40;78.80;;;;;;5034407;28;20221;-62
2022/08/09 07:57:37;;;;;;;4.15;2.78;;;23.40;79.10;;;;;;5013578;28;20192;-63
2022/08/09 08:00:05;;;;;;;3.05;2.13;;;23.40;79.30;;;;;;5035694;28;20231;-63
2022/08/09 08:02:30;;;;;;;3.35;2.50;;;23.30;78.30;;;;;;5033965;28;20178;-64
2022/08/09 08:04:56;;;;;;;2.50;2.03;;;23.30;78.70;;;;;;5032083;28;20214;-63
2022/08/09 08:07:22;;;;;;;4.97;3.00;;;23.30;78.30;;;;;;5039316;28;20210;-63
2022/08/09 08:09:48;;;;;;;3.13;2.80;;;23.40;79.20;;;;;;5032869;28;20206;-63
2022/08/09 08:12:13;;;;;;;4.50;2.78;;;23.50;78.00;;;;;;5032900;28;20200;-66
2022/08/09 08:14:39;;;;;;;5.18;2.60;;;23.50;77.40;;;;;;5037839;28;20822;-72
2022/08/09 08:17:04;;;;;;;2.70;2.50;;;23.60;76.80;;;;;;5012456;28;20206;-73
2022/08/09 08:19:30;;;;;;;3.50;2.42;;;23.70;78.70;;;;;;5044586;28;20197;-69
2022/08/09 08:21:56;;;;;;;6.07;2.80;;;23.80;76.70;;;;;;5032421;28;20225;-61
2022/08/09 08:24:21;;;;;;;3.15;2.85;;;23.90;76.10;;;;;;5038680;28;20208;-62
2022/08/09 08:26:47;;;;;;;6.90;2.67;;;23.90;75.20;;;;;;5015650;28;20237;-62
2022/08/09 08:29:13;;;;;;;5.80;2.78;;;23.90;74.40;;;;;;5035726;28;20249;-62
2022/08/09 08:31:38;;;;;;;14.35;3.15;;;24.00;75.60;;;;;;5016536;28;20212;-73
2022/08/09 08:34:03;;;;;;;4.95;2.70;;;24.10;75.90;;;;;;5040978;28;20603;-61
2022/08/09 08:36:29;;;;;;;8.85;2.58;;;24.10;75.70;;;;;;5034255;28;20242;-61
2022/08/09 08:38:54;;;;;;;6.65;3.25;;;24.10;72.50;;;;;;5034277;28;20213;-61
2022/08/09 08:41:22;;;;;;;4.45;2.78;;;24.00;72.70;;;;;;5029312;28;20289;-63
2022/08/09 08:43:48;;;;;;;9.05;3.78;;;24.00;71.80;;;;;;5035323;28;20194;-61
2022/08/09 08:46:16;;;;;;;3.38;2.58;;;24.00;71.80;;;;;;5033107;28;20217;-62
2022/08/09 08:48:41;;;;;;;3.10;2.80;;;24.10;73.60;;;;;;5035746;28;20191;-62
2022/08/09 08:51:07;;;;;;;2.60;2.40;;;24.20;72.40;;;;;;5029114;28;20259;-62
2022/08/09 08:53:34;;;;;;;4.63;2.25;;;24.20;71.80;;;;;;5032740;28;20661;-62
2022/08/09 08:56:00;;;;;;;3.53;1.92;;;24.30;70.20;;;;;;5014114;28;20306;-62
2022/08/09 08:58:28;;;;;;;2.58;2.38;;;24.30;69.80;;;;;;5022351;28;20681;-62
2022/08/09 09:00:56;;;;;;;4.70;3.03;;;24.30;70.00;;;;;;5030986;28;20245;-62
2022/08/09 09:03:23;;;;;;;2.78;2.20;;;24.30;68.10;;;;;;5035349;28;20694;-63
2022/08/09 09:05:49;;;;;;;3.28;2.80;;;24.40;69.60;;;;;;5029726;28;20237;-62
2022/08/09 09:08:19;;;;;;;2.17;1.98;;;24.50;68.40;;;;;;5028741;28;20197;-66
2022/08/09 09:10:46;;;;;;;3.25;2.08;;;24.50;67.60;;;;;;5027200;28;20226;-62
2022/08/09 09:13:13;;;;;;;3.35;2.60;;;24.50;67.60;;;;;;5030746;28;20171;-62
2022/08/09 09:15:38;;;;;;;3.10;2.90;;;24.60;67.00;;;;;;5030923;28;20307;-63
2022/08/09 09:18:04;;;;;;;2.72;1.88;;;24.60;66.90;;;;;;5015961;28;20194;-70
2022/08/09 09:20:34;;;;;;;3.65;2.80;;;24.70;68.90;;;;;;5023020;28;20207;-62
2022/08/09 09:22:59;;;;;;;3.10;2.80;;;24.80;70.10;;;;;;5020750;28;20206;-62
2022/08/09 09:25:37;;;;;;;2.13;2.03;;;24.90;70.30;;;;;;5020012;28;20223;-62
2022/08/09 09:28:05;;;;;;;3.75;2.58;;;25.00;66.90;;;;;;5029335;28;20182;-61
2022/08/09 09:30:31;;;;;;;4.97;2.42;;;25.00;66.30;;;;;;5028781;28;20561;-62
2022/08/09 09:33:11;;;;;;;3.00;2.58;;;25.00;67.30;;;;;;5031537;28;20175;-62
2022/08/09 09:35:57;;;;;;;4.88;2.47;;;25.10;65.80;;;;;;5030582;28;20288;-62
2022/08/09 09:38:46;;;;;;;2.88;2.53;;;25.10;66.00;;;;;;5023503;28;20183;-62
2022/08/09 09:41:27;;;;;;;4.47;2.80;;;25.20;66.80;;;;;;5015747;28;20214;-62
2022/08/09 09:43:54;;;;;;;5.00;2.08;;;25.30;64.90;;;;;;5017819;28;20187;-63
2022/08/09 09:46:33;;;;;;;3.05;2.75;;;25.30;64.10;;;;;;5025566;28;20211;-63
2022/08/09 09:49:04;;;;;;;2.42;2.22;;;25.40;63.80;;;;;;5017666;28;20205;-64
2022/08/09 09:51:31;;;;;;;3.95;2.22;;;25.50;63.90;;;;;;5036939;28;20282;-63
2022/08/09 09:54:12;;;;;;;3.38;2.30;;;25.50;65.70;;;;;;5034835;28;20211;-62
2022/08/09 09:56:43;;;;;;;2.53;2.17;;;25.60;62.10;;;;;;5031136;28;20214;-62
2022/08/09 09:59:10;;;;;;;3.90;2.80;;;25.60;62.70;;;;;;5031832;28;20599;-63
2022/08/09 10:01:36;;;;;;;5.38;2.72;;;25.70;61.30;;;;;;5033567;28;20229;-74
2022/08/09 10:04:03;;;;;;;112.32;16.70;;;25.80;61.10;;;;;;5036211;28;20265;-71
2022/08/09 10:06:41;;;;;;;4.63;2.72;;;25.90;61.20;;;;;;5026609;28;20304;-63
2022/08/09 10:09:07;;;;;;;2.63;2.40;;;25.90;62.00;;;;;;5024784;28;20741;-63
2022/08/09 10:11:34;;;;;;;3.20;2.28;;;26.10;61.10;;;;;;5030029;28;20234;-63
2022/08/09 10:13:59;;;;;;;6.82;2.33;;;26.00;58.50;;;;;;5039759;28;20616;-64
2022/08/09 10:16:26;;;;;;;2.10;1.90;;;25.90;59.50;;;;;;5023641;28;20203;-63
2022/08/09 10:18:53;;;;;;;3.17;2.08;;;25.90;58.90;;;;;;5026731;28;20202;-63
2022/08/09 10:21:23;;;;;;;8.48;2.83;;;26.00;59.30;;;;;;5026144;28;20207;-63
2022/08/09 10:23:49;;;;;;;3.85;2.47;;;26.00;60.00;;;;;;5023340;28;20206;-63
2022/08/09 10:26:15;;;;;;;3.13;2.05;;;26.20;60.50;;;;;;5030908;28;20294;-63
2022/08/09 10:28:42;;;;;;;2.85;2.65;;;26.30;59.50;;;;;;5042139;28;20188;-63
2022/08/09 10:31:10;;;;;;;3.65;2.20;;;26.50;59.90;;;;;;5029658;28;20227;-63
2022/08/09 10:33:36;;;;;;;3.03;2.58;;;26.60;57.00;;;;;;5023307;28;21011;-64
2022/08/09 10:36:06;;;;;;;5.93;3.00;;;26.70;59.40;;;;;;5038464;28;20206;-63
2022/08/09 10:38:32;;;;;;;3.70;2.58;;;26.70;57.10;;;;;;5033184;28;20186;-64
2022/08/09 10:40:58;;;;;;;2.85;2.38;;;26.60;57.60;;;;;;5031429;28;20547;-63
2022/08/09 10:43:25;;;;;;;3.03;2.30;;;26.60;58.20;;;;;;5023284;28;20183;-63
2022/08/09 10:45:50;;;;;;;6.75;3.03;;;26.30;58.10;;;;;;5030802;28;20215;-63
2022/08/09 10:48:30;;;;;;;2.50;2.33;;;26.00;59.00;;;;;;5036413;28;20287;-63
2022/08/09 10:51:08;;;;;;;4.00;2.25;;;26.00;57.50;;;;;;5033937;28;20203;-63
2022/08/09 10:53:47;;;;;;;2.55;2.17;;;26.20;58.20;;;;;;5034205;28;20206;-64
2022/08/09 10:56:27;;;;;;;2.72;2.25;;;26.50;57.00;;;;;;5029656;28;20201;-63
2022/08/09 10:58:58;;;;;;;2.95;2.75;;;26.80;56.70;;;;;;5032375;28;20519;-63
2022/08/09 11:01:32;;;;;;;2.90;2.30;;;27.00;56.10;;;;;;5032665;28;20227;-63
2022/08/09 11:04:19;;;;;;;2.33;2.15;;;27.20;54.90;;;;;;5038836;28;20695;-64
2022/08/09 11:07:06;;;;;;;6.38;3.05;;;27.30;54.10;;;;;;5032690;28;20550;-63
2022/08/09 11:09:37;;;;;;;3.17;2.97;;;27.20;55.90;;;;;;5038051;28;20184;-63
2022/08/09 11:12:20;;;;;;;3.70;2.53;;;27.30;55.10;;;;;;5029099;28;20192;-64
2022/08/09 11:14:54;;;;;;;4.47;2.63;;;27.50;54.00;;;;;;5032690;28;20357;-64
2022/08/09 11:17:19;;;;;;;3.72;2.53;;;27.90;53.40;;;;;;5030475;28;20191;-64
2022/08/09 11:20:08;;;;;;;2.67;2.05;;;28.10;53.00;;;;;;5029305;28;20194;-64
2022/08/09 11:22:40;;;;;;;2.42;2.22;;;28.20;53.30;;;;;;5010254;28;20754;-64
2022/08/09 11:25:07;;;;;;;5.25;2.30;;;28.10;53.60;;;;;;5037623;28;20646;-71
2022/08/09 11:27:38;;;;;;;2.90;2.60;;;28.10;53.10;;;;;;5011766;28;20215;-66
2022/08/09 11:30:05;;;;;;;2.92;2.42;;;28.10;52.20;;;;;;5027037;28;20215;-66
2022/08/09 11:32:52;;;;;;;2.85;2.65;;;28.20;51.00;;;;;;5031403;28;20194;-63
2022/08/09 11:35:26;;;;;;;4.25;2.63;;;28.20;50.80;;;;;;5019468;28;20541;-66
2022/08/09 11:38:13;;;;;;;2.40;2.20;;;28.60;51.50;;;;;;5012184;28;20192;-66
2022/08/09 11:40:38;;;;;;;4.05;2.15;;;29.20;51.70;;;;;;5014553;28;20218;-64
2022/08/09 11:43:05;;;;;;;4.90;2.35;;;29.90;49.00;;;;;;5018768;28;20630;-63
2022/08/09 11:45:39;;;;;;;2.70;2.50;;;30.70;50.50;;;;;;5027759;28;20227;-64
2022/08/09 11:48:10;;;;;;;2.80;2.60;;;31.50;48.80;;;;;;5017411;28;20180;-64
2022/08/09 11:50:55;;;;;;;1.98;1.80;;;32.20;45.70;;;;;;5025985;28;20208;-65
2022/08/09 11:53:26;;;;;;;2.50;2.30;;;32.80;45.50;;;;;;5014718;28;20180;-66
2022/08/09 11:55:54;;;;;;;3.08;2.60;;;33.50;43.20;;;;;;5008332;28;20335;-63
2022/08/09 11:58:19;;;;;;;2.45;2.28;;;34.00;43.00;;;;;;5015681;28;20825;-64
2022/08/09 12:01:02;;;;;;;2.72;2.53;;;34.00;42.50;;;;;;5023287;28;20258;-63
2022/08/09 12:03:29;;;;;;;2.63;2.42;;;33.50;42.30;;;;;;5016720;28;20728;-64
2022/08/09 12:05:57;;;;;;;2.83;2.47;;;32.90;42.40;;;;;;5024008;28;20247;-65
2022/08/09 12:08:24;;;;;;;5.10;2.45;;;32.30;43.40;;;;;;5017031;28;20203;-64
2022/08/09 12:10:55;;;;;;;4.10;2.50;;;31.70;42.80;;;;;;5036504;28;20191;-64
2022/08/09 12:13:36;;;;;;;2.90;2.70;;;31.20;43.80;;;;;;5009258;28;20230;-64
2022/08/09 12:16:12;;;;;;;2.65;2.45;;;30.70;43.60;;;;;;5030452;28;20250;-65
2022/08/09 12:18:41;;;;;;;3.58;2.63;;;30.40;43.70;;;;;;5021924;28;20278;-65
2022/08/09 12:21:08;;;;;;;2.55;2.35;;;30.30;46.60;;;;;;5034364;28;20193;-71
2022/08/09 12:23:42;;;;;;;4.03;2.50;;;30.20;44.90;;;;;;5017125;28;20194;-63
2022/08/09 12:26:08;;;;;;;4.07;2.58;;;30.20;45.80;;;;;;5028534;28;20208;-62
2022/08/09 12:28:33;;;;;;;2.35;2.25;;;30.00;44.40;;;;;;5034400;28;20691;-63
2022/08/09 12:31:00;;;;;;;2.78;2.45;;;29.90;43.70;;;;;;5029756;28;20204;-63
2022/08/09 12:33:26;;;;;;;2.80;2.58;;;29.80;43.80;;;;;;5034568;28;20179;-64
2022/08/09 12:36:04;;;;;;;3.60;2.75;;;29.80;44.10;;;;;;5031188;28;20187;-63
2022/08/09 12:38:30;;;;;;;4.70;2.58;;;29.80;44.30;;;;;;5029564;28;20286;-63
2022/08/09 12:40:58;;;;;;;2.28;2.17;;;29.90;43.60;;;;;;5031562;28;20270;-63
2022/08/09 12:43:26;;;;;;;2.60;2.40;;;29.90;44.00;;;;;;5032721;28;20259;-63
2022/08/09 12:45:54;;;;;;;2.40;2.20;;;30.50;44.30;;;;;;5031128;28;20229;-63
2022/08/09 12:48:20;;;;;;;2.03;1.90;;;31.00;43.70;;;;;;5034603;28;20247;-63
2022/08/09 12:50:46;;;;;;;2.30;2.13;;;32.20;43.90;;;;;;5029008;28;20207;-64